Shin Mei Maru — JG5617 — position and weather

sailwx.info

Track history (hours):
 
Tides and Currents Weather Stations Pressure Air Temp Water Temp Dewpoint Dewpoint Depression Visibility Wind Speed Wind Dir Waves Ship Positions

Shin Mei Maru

Last reported at 2015-Jan-28 13:33 UTC. Time now 2015-Jan-30 17:05 UTC.
Position N 34°52' E 139°59'.

Length 160 m; draft 6.8 m.

Type: Cargo ship. MMSI: 431100922.

Date/timePositionNaut miles runAvg speedWind from/ knotsBaromVisibWave heightAir tempDewpointWater temp
2015-Jan-28 13:33N 34°52' E 139°59'1515.6
2015-Jan-28 12:34N 34°60' E 139°43'1717.1
2015-Jan-28 11:33N 35°17' E 139°45'1413.6
2015-Jan-28 10:33N 35°30' E 139°51'9 4.5
2015-Jan-28 08:26N 35°38' E 139°46'1 0.3
2015-Jan-28 04:33N 35°37' E 139°46'1211.8
2015-Jan-28 03:33N 35°25' E 139°47'1111.5
2015-Jan-28 02:34N 35°14' E 139°47'1717.2
2015-Jan-28 01:34N 34°59' E 139°36'23816.9
2015-Jan-27 11:30N 33°54' E 134°58'2021.4
2015-Jan-27 10:33N 34°15' E 134°58'2020.2
2015-Jan-27 09:34N 34°30' E 135°13'1111.0
2015-Jan-27 08:32N 34°37' E 135°25'0 0.0
2015-Jan-27 07:32N 34°37' E 135°25'0 0.0
2015-Jan-27 06:21N 34°37' E 135°25'0 0.0
2015-Jan-27 05:32N 34°37' E 135°25'0 0.0
2015-Jan-27 04:14N 34°37' E 135°25'0 0.0
2015-Jan-27 03:26N 34°37' E 135°25'0 0.0
2015-Jan-27 01:32N 34°37' E 135°25'0 0.1
2015-Jan-27 00:33N 34°37' E 135°25'1414.2
2015-Jan-26 23:33N 34°28' E 135°11'1717.2
2015-Jan-26 22:34N 34°14' E 134°59'1817.8
2015-Jan-26 21:33N 33°56' E 134°59'21915.4
2015-Jan-26 07:21N 34°50' E 139°17'1518.7
2015-Jan-26 06:33N 34°59' E 139°31'1818.2
2015-Jan-26 05:33N 35°12' E 139°46'1312.9
2015-Jan-26 04:34N 35°25' E 139°44'1312.5
2015-Jan-26 03:33N 35°38' E 139°46'0 0.1
2015-Jan-25 23:12N 35°38' E 139°46'0 0.0
2015-Jan-25 22:21N 35°38' E 139°46'3 3.5
2015-Jan-25 21:33N 35°35' E 139°47'1212.4
2015-Jan-25 20:33N 35°23' E 139°46'1211.9
2015-Jan-25 19:33N 35°11' E 139°47'1717.0
2015-Jan-25 18:33N 34°54' E 139°45'1816.4
2015-Jan-25 17:27N 34°56' E 140°08'  
2015-Jan-21 14:26N 35°04' E 140°26'2218.2
2015-Jan-21 13:14N 34°53' E 140°03'1218.1
2015-Jan-21 12:33N 34°51' E 139°48'1717.1
2015-Jan-21 11:33N 35°08' E 139°45'1414.0
2015-Jan-21 10:33N 35°22' E 139°42'1413.9
2015-Jan-21 09:33N 35°36' E 139°47'3 1.2
2015-Jan-21 07:16N 35°38' E 139°46'1 0.5
2015-Jan-21 04:33N 35°37' E 139°46'1313.2
2015-Jan-21 03:33N 35°23' E 139°46'1212.0
2015-Jan-21 02:33N 35°11' E 139°47'1817.7
2015-Jan-21 01:33N 34°57' E 139°35'23516.4
2015-Jan-20 11:14N 33°57' E 134°59'1319.6
2015-Jan-20 10:33N 34°10' E 134°58'1817.9
2015-Jan-20 09:33N 34°27' E 135°07'1717.1
2015-Jan-20 08:33N 34°37' E 135°24'0 0.2
2015-Jan-20 06:14N 34°37' E 135°25'0 0.0
2015-Jan-20 04:32N 34°37' E 135°25'0 0.0
2015-Jan-20 03:26N 34°37' E 135°25'0 0.0
2015-Jan-20 02:08N 34°37' E 135°25'0 0.0
2015-Jan-20 01:20N 34°37' E 135°25'1 1.5
2015-Jan-20 00:34N 34°36' E 135°23'1717.1
2015-Jan-19 23:33N 34°25' E 135°07'1717.3
2015-Jan-19 22:34N 34°10' E 134°59'21914.6
2015-Jan-19 07:33N 34°52' E 139°20'1717.0
2015-Jan-19 06:33N 35°02' E 139°36'1515.2
2015-Jan-19 05:33N 35°15' E 139°46'1312.8
2015-Jan-19 04:34N 35°28' E 139°48'11 2.0
2015-Jan-18 23:14N 35°38' E 139°46'0 0.2
2015-Jan-18 22:33N 35°38' E 139°46'1212.4
2015-Jan-18 21:34N 35°26' E 139°48'1211.7
2015-Jan-18 20:33N 35°14' E 139°47'1717.0
2015-Jan-18 19:33N 34°57' E 139°43'1414.4
2015-Jan-18 18:33N 34°53' E 139°60'2317.1
2015-Jan-18 17:13N 35°04' E 140°24'  
Track history (hours):
 
Tides and Currents Weather Stations Pressure Air Temp Water Temp Dewpoint Dewpoint Depression Visibility Wind Speed Wind Dir Waves Ship Positions

Shin Mei Maru

Last reported at 2015-Jan-28 13:33 UTC. Time now 2015-Jan-30 17:05 UTC.
Position N 34°52' E 139°59'.

Length 160 m; draft 6.8 m.

Type: Cargo ship. MMSI: 431100922.

Date/timePositionNaut miles runAvg speedWind from/ knotsBaromVisibWave heightAir tempDewpointWater temp
2015-Jan-28 13:33N 34°52' E 139°59'1515.6
2015-Jan-28 12:34N 34°60' E 139°43'1717.1
2015-Jan-28 11:33N 35°17' E 139°45'1413.6
2015-Jan-28 10:33N 35°30' E 139°51'9 4.5
2015-Jan-28 08:26N 35°38' E 139°46'1 0.3
2015-Jan-28 04:33N 35°37' E 139°46'1211.8
2015-Jan-28 03:33N 35°25' E 139°47'1111.5
2015-Jan-28 02:34N 35°14' E 139°47'1717.2
2015-Jan-28 01:34N 34°59' E 139°36'23816.9
2015-Jan-27 11:30N 33°54' E 134°58'2021.4
2015-Jan-27 10:33N 34°15' E 134°58'2020.2
2015-Jan-27 09:34N 34°30' E 135°13'1111.0
2015-Jan-27 08:32N 34°37' E 135°25'0 0.0
2015-Jan-27 07:32N 34°37' E 135°25'0 0.0
2015-Jan-27 06:21N 34°37' E 135°25'0 0.0
2015-Jan-27 05:32N 34°37' E 135°25'0 0.0
2015-Jan-27 04:14N 34°37' E 135°25'0 0.0
2015-Jan-27 03:26N 34°37' E 135°25'0 0.0
2015-Jan-27 01:32N 34°37' E 135°25'0 0.1
2015-Jan-27 00:33N 34°37' E 135°25'1414.2
2015-Jan-26 23:33N 34°28' E 135°11'1717.2
2015-Jan-26 22:34N 34°14' E 134°59'1817.8
2015-Jan-26 21:33N 33°56' E 134°59'21915.4
2015-Jan-26 07:21N 34°50' E 139°17'1518.7
2015-Jan-26 06:33N 34°59' E 139°31'1818.2
2015-Jan-26 05:33N 35°12' E 139°46'1312.9
2015-Jan-26 04:34N 35°25' E 139°44'1312.5
2015-Jan-26 03:33N 35°38' E 139°46'0 0.1
2015-Jan-25 23:12N 35°38' E 139°46'0 0.0
2015-Jan-25 22:21N 35°38' E 139°46'3 3.5
2015-Jan-25 21:33N 35°35' E 139°47'1212.4
2015-Jan-25 20:33N 35°23' E 139°46'1211.9
2015-Jan-25 19:33N 35°11' E 139°47'1717.0
2015-Jan-25 18:33N 34°54' E 139°45'1816.4
2015-Jan-25 17:27N 34°56' E 140°08'  
2015-Jan-21 14:26N 35°04' E 140°26'2218.2
2015-Jan-21 13:14N 34°53' E 140°03'1218.1
2015-Jan-21 12:33N 34°51' E 139°48'1717.1
2015-Jan-21 11:33N 35°08' E 139°45'1414.0
2015-Jan-21 10:33N 35°22' E 139°42'1413.9
2015-Jan-21 09:33N 35°36' E 139°47'3 1.2
2015-Jan-21 07:16N 35°38' E 139°46'1 0.5
2015-Jan-21 04:33N 35°37' E 139°46'1313.2
2015-Jan-21 03:33N 35°23' E 139°46'1212.0
2015-Jan-21 02:33N 35°11' E 139°47'1817.7
2015-Jan-21 01:33N 34°57' E 139°35'23516.4
2015-Jan-20 11:14N 33°57' E 134°59'1319.6
2015-Jan-20 10:33N 34°10' E 134°58'1817.9
2015-Jan-20 09:33N 34°27' E 135°07'1717.1
2015-Jan-20 08:33N 34°37' E 135°24'0 0.2
2015-Jan-20 06:14N 34°37' E 135°25'0 0.0
2015-Jan-20 04:32N 34°37' E 135°25'0 0.0
2015-Jan-20 03:26N 34°37' E 135°25'0 0.0
2015-Jan-20 02:08N 34°37' E 135°25'0 0.0
2015-Jan-20 01:20N 34°37' E 135°25'1 1.5
2015-Jan-20 00:34N 34°36' E 135°23'1717.1
2015-Jan-19 23:33N 34°25' E 135°07'1717.3
2015-Jan-19 22:34N 34°10' E 134°59'21914.6
2015-Jan-19 07:33N 34°52' E 139°20'1717.0
2015-Jan-19 06:33N 35°02' E 139°36'1515.2
2015-Jan-19 05:33N 35°15' E 139°46'1312.8
2015-Jan-19 04:34N 35°28' E 139°48'11 2.0
2015-Jan-18 23:14N 35°38' E 139°46'0 0.2
2015-Jan-18 22:33N 35°38' E 139°46'1212.4
2015-Jan-18 21:34N 35°26' E 139°48'1211.7
2015-Jan-18 20:33N 35°14' E 139°47'1717.0
2015-Jan-18 19:33N 34°57' E 139°43'1414.4
2015-Jan-18 18:33N 34°53' E 139°60'2317.1
2015-Jan-18 17:13N 35°04' E 140°24'  

Dump ship's entire track history